Time;durP1;ratioP1;P1;durP2;ratioP2;P2;SDS_P1;SDS_P2;PMS_P1;PMS_P2;Temp;Humidity;BMP_temperature;BMP_pressure;BME280_temperature;BME280_humidity;BME280_pressure;Samples;Min_cycle;Max_cycle;Signal;HPM_P1;HPM_P2
2022/03/27 00:00:36;;;;;;;13.25;8.88;;;11.40;91.60;;;;;;5010910;28;20525;-69
2022/03/27 00:03:02;;;;;;;17.10;9.02;;;11.40;91.70;;;;;;5010858;28;20034;-69
2022/03/27 00:05:27;;;;;;;16.90;8.98;;;11.30;91.90;;;;;;5010814;28;20034;-70
2022/03/27 00:07:53;;;;;;;14.07;9.27;;;11.30;91.70;;;;;;5010744;28;20456;-69
2022/03/27 00:10:19;;;;;;;17.33;9.10;;;11.30;91.80;;;;;;5010049;28;20033;-70
2022/03/27 00:12:44;;;;;;;13.63;8.82;;;11.30;91.80;;;;;;5010802;28;20044;-70
2022/03/27 00:15:11;;;;;;;14.63;8.63;;;11.30;91.70;;;;;;5010655;28;20025;-70
2022/03/27 00:17:37;;;;;;;13.30;8.13;;;11.30;91.80;;;;;;5009493;28;20088;-70
2022/03/27 00:20:04;;;;;;;15.02;8.73;;;11.30;91.90;;;;;;5009610;28;20590;-70
2022/03/27 00:22:30;;;;;;;16.85;8.75;;;11.30;91.70;;;;;;5010720;28;20060;-70
2022/03/27 00:24:57;;;;;;;14.95;8.40;;;11.30;91.70;;;;;;5011141;28;20042;-69
2022/03/27 00:27:23;;;;;;;17.63;9.00;;;11.30;91.80;;;;;;5014330;28;20026;-70
2022/03/27 00:29:49;;;;;;;13.88;8.73;;;11.30;91.60;;;;;;5014387;28;20034;-69
2022/03/27 00:32:15;;;;;;;17.60;9.77;;;11.20;91.70;;;;;;5014055;28;20768;-70
2022/03/27 00:34:40;;;;;;;17.15;9.80;;;11.20;91.90;;;;;;5014109;28;20030;-70
2022/03/27 00:37:06;;;;;;;16.83;9.73;;;11.10;92.20;;;;;;5013713;28;20353;-71
2022/03/27 00:39:32;;;;;;;15.90;9.38;;;11.10;91.90;;;;;;5014162;28;20030;-70
2022/03/27 00:41:57;;;;;;;16.05;9.38;;;11.10;92.00;;;;;;5014187;28;20034;-71
2022/03/27 00:44:23;;;;;;;17.00;10.60;;;11.10;92.10;;;;;;5014220;28;20046;-69
2022/03/27 00:46:49;;;;;;;14.90;9.45;;;11.10;92.00;;;;;;5013670;28;20100;-69
2022/03/27 00:49:15;;;;;;;15.85;10.02;;;11.10;92.00;;;;;;5014610;28;20562;-70
2022/03/27 00:51:41;;;;;;;16.90;9.75;;;11.20;92.00;;;;;;5013138;28;20033;-70
2022/03/27 00:54:06;;;;;;;17.60;9.88;;;11.20;92.00;;;;;;5013953;28;20109;-69
2022/03/27 00:56:32;;;;;;;16.02;10.20;;;11.20;92.00;;;;;;5013893;28;20088;-70
2022/03/27 00:58:57;;;;;;;16.77;10.15;;;11.10;92.00;;;;;;5012801;28;20092;-69
2022/03/27 01:01:37;;;;;;;20.15;10.57;;;11.10;92.10;;;;;;5014426;28;20022;-69
2022/03/27 01:04:07;;;;;;;18.02;10.50;;;11.00;92.10;;;;;;5013874;28;20549;-70
2022/03/27 01:06:38;;;;;;;16.95;10.00;;;11.00;92.00;;;;;;5013450;28;20041;-69
2022/03/27 01:11:51;;;;;;;18.23;10.63;;;11.00;92.20;;;;;;5013604;28;20049;-69
2022/03/27 01:14:31;;;;;;;18.40;10.55;;;11.00;92.30;;;;;;5013582;28;20026;-69
2022/03/27 01:16:59;;;;;;;19.58;10.70;;;10.90;92.30;;;;;;5013757;28;20038;-70
2022/03/27 01:19:26;;;;;;;18.35;9.48;;;10.90;92.40;;;;;;5014200;28;20105;-70
2022/03/27 01:21:52;;;;;;;16.50;9.13;;;10.90;92.30;;;;;;5013326;28;20054;-69
2022/03/27 01:24:18;;;;;;;20.67;11.23;;;10.90;92.20;;;;;;5013453;28;20045;-71
2022/03/27 01:26:44;;;;;;;20.00;10.52;;;10.90;92.40;;;;;;5011761;28;20144;-71
2022/03/27 01:29:10;;;;;;;20.20;10.18;;;10.90;92.20;;;;;;5028306;28;20041;-71
2022/03/27 01:31:36;;;;;;;16.73;11.00;;;11.00;92.20;;;;;;5012036;28;20121;-69
2022/03/27 01:34:03;;;;;;;19.30;10.20;;;10.90;92.20;;;;;;5014235;28;20025;-69
2022/03/27 01:36:37;;;;;;;18.80;10.95;;;10.90;92.30;;;;;;5011703;28;20065;-70
2022/03/27 01:39:08;;;;;;;16.52;10.00;;;10.80;92.40;;;;;;5013052;28;20038;-70
2022/03/27 01:41:34;;;;;;;20.52;11.55;;;10.90;92.40;;;;;;5012964;28;20049;-70
2022/03/27 01:44:00;;;;;;;19.15;10.40;;;10.80;92.40;;;;;;5012901;28;20104;-69
2022/03/27 01:46:30;;;;;;;22.63;10.93;;;10.90;92.30;;;;;;5013281;28;20176;-71
2022/03/27 01:48:57;;;;;;;18.40;11.00;;;10.90;92.40;;;;;;5012937;28;20518;-69
2022/03/27 01:51:24;;;;;;;17.80;10.52;;;10.90;92.50;;;;;;5012959;28;20034;-69
2022/03/27 01:53:49;;;;;;;19.02;10.60;;;10.90;92.50;;;;;;5012769;28;20484;-70
2022/03/27 01:56:15;;;;;;;22.58;11.77;;;10.90;92.40;;;;;;5012786;28;20033;-69
2022/03/27 01:58:42;;;;;;;22.63;11.82;;;10.90;92.50;;;;;;5012571;28;20026;-69
2022/03/27 02:01:08;;;;;;;19.30;10.73;;;10.90;92.60;;;;;;5013321;28;20022;-70
2022/03/27 02:03:34;;;;;;;19.92;11.20;;;10.90;92.60;;;;;;5008156;28;20487;-68
2022/03/27 02:06:00;;;;;;;17.63;10.90;;;10.80;92.60;;;;;;4992781;28;20160;-70
2022/03/27 02:08:26;;;;;;;21.30;11.35;;;10.80;92.70;;;;;;4991765;28;20130;-70
2022/03/27 02:10:51;;;;;;;21.83;11.10;;;10.90;92.60;;;;;;4992767;28;20109;-70
2022/03/27 02:13:22;;;;;;;24.88;12.00;;;10.90;92.70;;;;;;4993091;28;20030;-71
2022/03/27 02:15:49;;;;;;;21.45;11.95;;;10.90;92.50;;;;;;4992818;28;20089;-68
2022/03/27 02:18:16;;;;;;;19.52;11.55;;;10.90;92.50;;;;;;4992675;28;20033;-70
2022/03/27 02:20:44;;;;;;;20.48;11.60;;;10.90;92.40;;;;;;4992393;28;20068;-69
2022/03/27 02:23:13;;;;;;;17.95;11.63;;;10.90;92.60;;;;;;4992559;28;20403;-70
2022/03/27 02:25:39;;;;;;;17.75;10.88;;;10.80;92.60;;;;;;4991341;28;20022;-70
2022/03/27 02:28:06;;;;;;;17.33;11.20;;;10.80;92.80;;;;;;4993049;28;20482;-70
2022/03/27 02:30:31;;;;;;;25.73;11.48;;;10.70;92.90;;;;;;4992449;28;20035;-69
2022/03/27 02:32:58;;;;;;;24.73;12.00;;;10.70;93.00;;;;;;4992365;28;20306;-69
2022/03/27 02:35:23;;;;;;;19.88;11.70;;;10.60;93.10;;;;;;4992422;28;20174;-71
2022/03/27 02:37:49;;;;;;;21.85;11.88;;;10.70;93.00;;;;;;4992378;28;20030;-71
2022/03/27 02:40:15;;;;;;;23.35;11.98;;;10.70;92.90;;;;;;4992799;28;20037;-70
2022/03/27 02:42:41;;;;;;;25.98;13.05;;;10.60;92.90;;;;;;4992108;28;20094;-70
2022/03/27 02:45:07;;;;;;;21.08;11.85;;;10.60;93.00;;;;;;4992070;28;20178;-70
2022/03/27 02:47:33;;;;;;;18.27;11.15;;;10.70;93.10;;;;;;4991862;28;20073;-70
2022/03/27 02:49:59;;;;;;;24.10;12.00;;;10.70;93.00;;;;;;4992147;28;20026;-71
2022/03/27 02:52:25;;;;;;;19.65;11.15;;;10.60;93.00;;;;;;4992553;28;20098;-70
2022/03/27 02:54:51;;;;;;;22.92;12.07;;;10.70;92.90;;;;;;4992436;28;20034;-70
2022/03/27 02:57:16;;;;;;;19.98;11.85;;;10.70;92.80;;;;;;4991955;28;20034;-68
2022/03/27 02:59:43;;;;;;;21.15;12.85;;;10.70;92.90;;;;;;4992080;28;20035;-69
2022/03/27 03:02:08;;;;;;;19.70;11.52;;;10.70;92.80;;;;;;4992225;28;20030;-70
2022/03/27 03:04:34;;;;;;;21.85;12.65;;;10.70;92.80;;;;;;4991858;28;20437;-70
2022/03/27 03:07:01;;;;;;;25.38;13.55;;;10.70;92.90;;;;;;4992274;28;20023;-70
2022/03/27 03:09:26;;;;;;;20.33;12.38;;;10.70;92.80;;;;;;4992068;28;20034;-70
2022/03/27 03:11:52;;;;;;;23.38;12.60;;;10.70;93.00;;;;;;4991805;28;20555;-69
2022/03/27 03:14:18;;;;;;;26.60;12.70;;;10.60;93.00;;;;;;4990833;28;20133;-70
2022/03/27 03:16:46;;;;;;;24.13;12.45;;;10.60;93.10;;;;;;4992086;28;20105;-70
2022/03/27 03:19:12;;;;;;;23.17;13.48;;;10.60;93.30;;;;;;4991067;28;20081;-70
2022/03/27 03:21:38;;;;;;;22.05;12.38;;;10.60;93.20;;;;;;4991729;28;20561;-70
2022/03/27 03:24:04;;;;;;;27.90;13.10;;;10.60;93.40;;;;;;4991656;28;20041;-70
2022/03/27 03:26:30;;;;;;;23.42;12.93;;;10.60;93.30;;;;;;4990543;28;20488;-70
2022/03/27 03:28:56;;;;;;;28.27;14.38;;;10.50;93.50;;;;;;4991729;28;20039;-69
2022/03/27 03:31:22;;;;;;;23.25;13.45;;;10.50;93.60;;;;;;4991992;28;20036;-69
2022/03/27 03:33:48;;;;;;;22.80;13.32;;;10.50;93.50;;;;;;4991665;28;20035;-69
2022/03/27 03:36:15;;;;;;;25.80;14.15;;;10.60;93.50;;;;;;4991607;28;20033;-69
2022/03/27 03:38:41;;;;;;;24.73;14.10;;;10.60;93.70;;;;;;4991575;28;20111;-70
2022/03/27 03:41:08;;;;;;;23.52;13.15;;;10.50;93.50;;;;;;4991731;28;20044;-70
2022/03/27 03:43:37;;;;;;;26.85;14.05;;;10.50;93.50;;;;;;4990499;28;20026;-70
2022/03/27 03:46:05;;;;;;;29.25;14.45;;;10.40;93.80;;;;;;4991890;28;20030;-70
2022/03/27 03:48:32;;;;;;;28.15;14.32;;;10.40;94.00;;;;;;4990492;28;20032;-70
2022/03/27 03:50:58;;;;;;;24.55;14.63;;;10.30;93.90;;;;;;4991704;28;20437;-69
2022/03/27 03:53:25;;;;;;;28.38;13.88;;;10.40;94.10;;;;;;4991543;28;20026;-70
2022/03/27 03:55:51;;;;;;;27.80;14.05;;;10.40;94.00;;;;;;4991464;28;20077;-70
2022/03/27 03:58:16;;;;;;;31.90;15.13;;;10.30;94.10;;;;;;4991725;28;20468;-70
2022/03/27 04:00:42;;;;;;;25.40;15.45;;;10.30;94.10;;;;;;4993902;28;20034;-69
2022/03/27 04:03:09;;;;;;;31.20;14.82;;;10.20;94.20;;;;;;4995171;28;20041;-70
2022/03/27 04:05:35;;;;;;;28.10;15.17;;;10.20;94.40;;;;;;4995274;28;20469;-70
2022/03/27 04:08:01;;;;;;;32.92;15.38;;;10.20;94.50;;;;;;4995343;28;20089;-70
2022/03/27 04:10:28;;;;;;;30.98;14.65;;;10.20;94.50;;;;;;4994517;28;20029;-69
2022/03/27 04:12:53;;;;;;;33.00;16.50;;;10.20;94.40;;;;;;4995076;28;20034;-71
2022/03/27 04:15:19;;;;;;;35.15;16.27;;;10.20;94.50;;;;;;4995061;28;20049;-68
2022/03/27 04:17:46;;;;;;;37.03;17.25;;;10.20;94.50;;;;;;4994818;28;20073;-70
2022/03/27 04:20:13;;;;;;;29.83;16.27;;;10.20;94.70;;;;;;4995068;28;20038;-68
2022/03/27 04:22:42;;;;;;;30.08;16.05;;;10.20;94.70;;;;;;4995439;28;20134;-69
2022/03/27 04:25:10;;;;;;;44.50;16.60;;;10.20;94.70;;;;;;4995525;28;20048;-71
2022/03/27 04:27:36;;;;;;;33.83;17.65;;;10.20;94.60;;;;;;4995013;28;20035;-70
2022/03/27 04:30:03;;;;;;;35.10;18.15;;;10.20;94.60;;;;;;4994880;28;20034;-69
2022/03/27 04:32:29;;;;;;;40.10;18.60;;;10.20;94.70;;;;;;4993616;28;20142;-69
2022/03/27 04:34:55;;;;;;;37.53;17.90;;;10.10;94.80;;;;;;4994761;28;20038;-70
2022/03/27 04:37:21;;;;;;;36.15;16.73;;;10.20;94.60;;;;;;4995332;28;20039;-69
2022/03/27 04:39:47;;;;;;;41.25;18.15;;;10.30;94.50;;;;;;4994768;28;20109;-70
2022/03/27 04:42:13;;;;;;;33.70;16.88;;;10.30;94.50;;;;;;4993573;28;20034;-70
2022/03/27 04:44:38;;;;;;;43.97;18.52;;;10.20;94.60;;;;;;4994753;28;20022;-70
2022/03/27 04:47:05;;;;;;;33.90;17.63;;;10.20;94.60;;;;;;4994518;28;20358;-70
2022/03/27 04:49:31;;;;;;;38.27;18.57;;;10.30;94.70;;;;;;4994531;28;20360;-69
2022/03/27 04:51:57;;;;;;;37.85;17.50;;;10.30;94.50;;;;;;4995175;28;21004;-69
2022/03/27 04:54:23;;;;;;;38.42;17.65;;;10.30;94.40;;;;;;4994447;28;20125;-69
2022/03/27 04:56:48;;;;;;;40.33;18.65;;;10.30;94.50;;;;;;4994375;28;20026;-69
2022/03/27 04:59:14;;;;;;;42.42;18.60;;;10.40;94.50;;;;;;4994226;28;20577;-69
2022/03/27 05:01:41;;;;;;;41.83;18.48;;;10.30;94.30;;;;;;4994516;28;20035;-69
2022/03/27 05:04:07;;;;;;;39.60;18.02;;;10.40;94.50;;;;;;4994746;28;20019;-68
2022/03/27 05:06:33;;;;;;;44.25;19.38;;;10.30;94.50;;;;;;4994081;28;20035;-69
2022/03/27 05:08:58;;;;;;;43.50;18.52;;;10.30;94.60;;;;;;4994158;28;20031;-70
2022/03/27 05:11:26;;;;;;;42.10;19.02;;;10.20;94.80;;;;;;4993894;28;20092;-69
2022/03/27 05:13:51;;;;;;;48.70;19.40;;;10.20;94.80;;;;;;4993976;28;20038;-70
2022/03/27 05:16:17;;;;;;;44.85;18.65;;;10.20;94.70;;;;;;4994400;28;20558;-70
2022/03/27 05:18:42;;;;;;;39.90;18.55;;;10.30;94.80;;;;;;4993848;28;20053;-70
2022/03/27 05:21:09;;;;;;;41.60;18.08;;;10.20;94.60;;;;;;4993778;28;20146;-69
2022/03/27 05:23:34;;;;;;;45.83;19.42;;;10.20;94.70;;;;;;4993863;28;20038;-69
2022/03/27 05:26:00;;;;;;;42.97;18.98;;;10.20;94.80;;;;;;4993764;28;20360;-71
2022/03/27 05:28:26;;;;;;;44.25;19.70;;;10.30;94.80;;;;;;4994170;28;20022;-70
2022/03/27 05:30:54;;;;;;;48.63;19.88;;;10.20;94.90;;;;;;4993851;28;20038;-70
2022/03/27 05:33:20;;;;;;;;;;;10.20;95.00;;;;;;4994293;28;20125;-70
2022/03/27 05:35:45;;;;;;;45.50;20.02;;;10.10;95.10;;;;;;4993837;28;19993;-69
2022/03/27 05:38:11;;;;;;;48.92;21.50;;;10.10;95.10;;;;;;4993214;28;20038;-69
2022/03/27 05:40:36;;;;;;;48.97;21.10;;;10.10;95.20;;;;;;4993513;28;20026;-70
2022/03/27 05:43:03;;;;;;;43.80;19.88;;;10.20;95.20;;;;;;4993844;28;20018;-69
2022/03/27 05:45:28;;;;;;;41.95;19.27;;;10.20;95.00;;;;;;4993521;28;20050;-69
2022/03/27 05:47:54;;;;;;;46.88;20.25;;;10.20;95.00;;;;;;4993276;28;20027;-69
2022/03/27 05:50:22;;;;;;;43.92;19.83;;;10.30;95.00;;;;;;4993416;28;20503;-69
2022/03/27 05:52:49;;;;;;;45.65;20.17;;;10.30;95.00;;;;;;4995497;28;20022;-71
2022/03/27 05:55:15;;;;;;;44.72;20.02;;;10.20;95.00;;;;;;5013590;28;20184;-71
2022/03/27 05:57:42;;;;;;;43.85;20.27;;;10.20;95.00;;;;;;5012810;28;20061;-70
2022/03/27 06:00:09;;;;;;;45.22;19.60;;;10.20;95.10;;;;;;5011662;28;20494;-70
2022/03/27 06:02:35;;;;;;;45.42;20.52;;;10.20;95.20;;;;;;5008315;28;20045;-70
2022/03/27 06:05:01;;;;;;;47.15;19.10;;;10.20;95.20;;;;;;4993081;28;20049;-70
2022/03/27 06:07:26;;;;;;;54.88;19.50;;;10.20;95.20;;;;;;4993514;28;20022;-70
2022/03/27 06:09:52;;;;;;;50.10;19.30;;;10.30;95.10;;;;;;4993063;28;20027;-69
2022/03/27 06:12:18;;;;;;;41.05;17.88;;;10.20;95.20;;;;;;4992908;28;20030;-70
2022/03/27 06:14:43;;;;;;;43.72;18.92;;;10.20;95.20;;;;;;4993006;28;20034;-70
2022/03/27 06:17:09;;;;;;;44.97;18.55;;;10.20;95.40;;;;;;4993506;28;20649;-69
2022/03/27 06:19:34;;;;;;;42.95;18.85;;;10.20;95.30;;;;;;4992860;28;20415;-71
2022/03/27 06:22:00;;;;;;;45.95;19.52;;;10.20;95.30;;;;;;4992301;28;20050;-70
2022/03/27 06:24:26;;;;;;;46.80;19.33;;;10.30;95.30;;;;;;4992120;28;20034;-71
2022/03/27 06:26:52;;;;;;;48.30;20.10;;;10.40;95.10;;;;;;4992297;28;20121;-69
2022/03/27 06:29:18;;;;;;;43.10;19.73;;;10.40;95.10;;;;;;4992161;28;20034;-71
2022/03/27 06:31:43;;;;;;;50.78;20.08;;;10.40;95.00;;;;;;4992741;28;20428;-72
2022/03/27 06:34:09;;;;;;;41.28;20.60;;;10.40;95.00;;;;;;5011999;28;20038;-71
2022/03/27 06:36:35;;;;;;;48.05;21.05;;;10.40;95.10;;;;;;5010775;28;20061;-69
2022/03/27 06:39:02;;;;;;;50.53;20.55;;;10.50;95.20;;;;;;5011168;28;20034;-70
2022/03/27 06:41:27;;;;;;;51.35;20.45;;;10.50;95.10;;;;;;5011347;28;20080;-71
2022/03/27 06:43:53;;;;;;;46.25;20.73;;;10.50;95.10;;;;;;5011172;28;20026;-70
2022/03/27 06:46:19;;;;;;;46.72;20.27;;;10.50;95.10;;;;;;5008855;28;20075;-72
2022/03/27 06:48:45;;;;;;;52.35;21.42;;;10.60;95.20;;;;;;5010968;28;20133;-70
2022/03/27 06:51:10;;;;;;;53.13;21.50;;;10.60;95.10;;;;;;5011525;28;20455;-72
2022/03/27 06:53:36;;;;;;;47.65;21.52;;;10.60;95.00;;;;;;5011397;28;20420;-71
2022/03/27 06:56:06;;;;;;;52.08;20.55;;;10.60;95.00;;;;;;5011278;28;20333;-72
2022/03/27 06:58:31;;;;;;;45.92;20.30;;;10.70;94.90;;;;;;5011467;28;20014;-71
2022/03/27 07:03:41;;;;;;;45.25;20.02;;;10.70;94.90;;;;;;5011164;28;20037;-71
2022/03/27 07:06:07;;;;;;;46.65;19.67;;;10.80;95.00;;;;;;5011265;28;20038;-72
2022/03/27 07:08:33;;;;;;;49.20;19.85;;;10.70;95.00;;;;;;5011144;28;20129;-73
2022/03/27 07:10:58;;;;;;;47.67;19.65;;;10.70;95.00;;;;;;5010986;28;20029;-74
2022/03/27 07:13:24;;;;;;;52.78;21.70;;;10.80;94.90;;;;;;5011451;28;20115;-70
2022/03/27 07:15:50;;;;;;;46.72;21.67;;;10.80;95.00;;;;;;5010747;28;20034;-71
2022/03/27 07:18:20;;;;;;;48.80;20.40;;;10.90;94.90;;;;;;5010984;28;20049;-71
2022/03/27 07:20:47;;;;;;;38.03;18.65;;;10.80;94.90;;;;;;4974579;28;1046015;-71
2022/03/27 07:23:16;;;;;;;45.53;20.20;;;10.80;95.00;;;;;;5010697;28;20113;-71
2022/03/27 07:25:44;;;;;;;43.20;19.85;;;10.70;95.10;;;;;;5011503;28;20037;-69
2022/03/27 07:28:10;;;;;;;;;;;10.80;95.10;;;;;;5012743;28;20222;-70
2022/03/27 07:30:36;;;;;;;44.35;20.25;;;10.90;95.00;;;;;;5011394;28;19917;-69
2022/03/27 07:33:03;;;;;;;49.80;21.00;;;10.80;95.10;;;;;;5010491;28;20034;-70
2022/03/27 07:35:30;;;;;;;49.58;19.98;;;10.80;95.20;;;;;;5011519;28;20026;-70
2022/03/27 07:37:56;;;;;;;48.90;20.42;;;10.70;95.20;;;;;;5011855;28;20074;-71
2022/03/27 07:40:22;;;;;;;46.35;18.85;;;10.60;95.40;;;;;;5011530;28;20105;-71
2022/03/27 07:42:53;;;;;;;40.15;19.48;;;10.80;95.30;;;;;;5011175;28;20034;-71
2022/03/27 07:45:21;;;;;;;44.22;18.42;;;10.80;95.30;;;;;;5011114;28;20065;-71
2022/03/27 07:47:48;;;;;;;38.58;17.77;;;10.70;95.30;;;;;;5011053;28;20036;-71
2022/03/27 07:50:15;;;;;;;34.90;17.17;;;10.80;95.20;;;;;;5011268;28;20034;-71
2022/03/27 07:52:41;;;;;;;36.67;16.80;;;10.70;95.20;;;;;;5011081;28;20036;-70
2022/03/27 07:55:08;;;;;;;37.53;18.42;;;10.70;95.20;;;;;;5011671;28;20030;-70
2022/03/27 07:57:34;;;;;;;42.00;18.63;;;10.70;95.20;;;;;;5011128;28;20092;-71
2022/03/27 08:00:01;;;;;;;39.15;19.05;;;10.70;95.20;;;;;;5010955;28;20046;-70
2022/03/27 08:02:26;;;;;;;40.08;18.23;;;10.80;95.20;;;;;;5011076;28;20109;-68
2022/03/27 08:04:52;;;;;;;42.22;18.25;;;10.70;95.40;;;;;;5010756;28;20113;-69
2022/03/27 08:07:17;;;;;;;44.92;19.15;;;10.80;95.30;;;;;;5010321;28;20191;-71
2022/03/27 08:09:43;;;;;;;38.88;17.70;;;10.80;95.20;;;;;;5010809;28;20408;-70
2022/03/27 08:12:09;;;;;;;37.00;16.92;;;10.90;95.10;;;;;;5010695;28;20022;-72
2022/03/27 08:14:39;;;;;;;36.75;17.05;;;10.90;95.00;;;;;;5010846;28;20030;-71
2022/03/27 08:17:06;;;;;;;34.95;15.63;;;10.90;94.80;;;;;;5009600;28;20022;-72
2022/03/27 08:19:32;;;;;;;34.27;17.07;;;10.90;94.60;;;;;;5010582;28;20133;-71
2022/03/27 08:21:58;;;;;;;36.97;16.75;;;10.90;94.50;;;;;;5010895;28;20065;-71
2022/03/27 08:24:24;;;;;;;37.15;17.80;;;10.90;94.50;;;;;;5010504;28;20107;-70
2022/03/27 08:26:56;;;;;;;39.65;17.48;;;10.90;94.60;;;;;;5010461;28;20038;-73
2022/03/27 08:29:26;;;;;;;29.92;15.63;;;10.90;94.50;;;;;;5010662;28;20117;-70
2022/03/27 08:31:52;;;;;;;40.63;18.42;;;11.00;94.40;;;;;;5010436;28;20038;-72
2022/03/27 08:34:19;;;;;;;51.58;21.75;;;11.00;94.40;;;;;;5010795;28;20092;-71
2022/03/27 08:36:46;;;;;;;35.08;16.98;;;11.10;94.40;;;;;;5009643;28;20100;-74
2022/03/27 08:39:11;;;;;;;32.75;16.25;;;11.10;94.40;;;;;;5010513;28;20365;-72
2022/03/27 08:41:41;;;;;;;35.00;17.10;;;11.20;94.30;;;;;;5010579;28;20034;-74
2022/03/27 08:44:09;;;;;;;37.17;16.88;;;11.30;94.10;;;;;;5010575;28;20029;-75
2022/03/27 08:46:35;;;;;;;36.53;16.02;;;11.20;93.90;;;;;;5012657;28;20642;-74
2022/03/27 08:49:07;;;;;;;36.08;16.90;;;11.10;94.00;;;;;;5014394;28;20036;-71
2022/03/27 08:51:39;;;;;;;38.45;17.08;;;11.10;94.10;;;;;;5013898;28;20068;-71
2022/03/27 08:54:07;;;;;;;33.08;16.83;;;11.10;94.20;;;;;;5013792;28;20096;-70
2022/03/27 08:56:34;;;;;;;;;;;11.10;94.10;;;;;;5014194;28;20117;-70
2022/03/27 08:59:06;;;;;;;33.55;15.35;;;11.20;93.80;;;;;;5012821;28;19913;-70
2022/03/27 09:01:32;;;;;;;36.58;16.02;;;11.20;93.80;;;;;;5013734;28;20045;-70
2022/03/27 09:03:58;;;;;;;32.28;15.80;;;11.20;93.90;;;;;;5014201;28;20397;-69
2022/03/27 09:06:25;;;;;;;36.67;17.42;;;11.20;94.00;;;;;;5013626;28;20095;-70
2022/03/27 09:08:51;;;;;;;35.77;16.13;;;11.30;94.00;;;;;;5013587;28;20040;-72
2022/03/27 09:11:19;;;;;;;33.80;16.48;;;11.30;93.70;;;;;;5013562;28;20664;-72
2022/03/27 09:13:49;;;;;;;38.42;15.55;;;11.30;94.00;;;;;;5013544;28;20025;-70
2022/03/27 09:16:16;;;;;;;33.28;15.30;;;11.40;93.60;;;;;;5013001;28;20025;-73
2022/03/27 09:18:53;;;;;;;29.13;14.77;;;11.40;93.40;;;;;;5013515;28;20058;-69
2022/03/27 09:21:23;;;;;;;33.83;15.30;;;11.40;93.50;;;;;;5013260;28;20432;-71
2022/03/27 09:23:58;;;;;;;32.42;14.23;;;11.50;93.40;;;;;;5012190;28;20034;-72
2022/03/27 09:26:24;;;;;;;31.48;15.27;;;11.70;93.30;;;;;;5013130;28;20037;-72
2022/03/27 09:28:53;;;;;;;33.28;15.77;;;11.70;93.10;;;;;;5013344;28;20045;-72
2022/03/27 09:31:27;;;;;;;27.77;14.18;;;11.80;92.90;;;;;;5013705;28;20037;-73
2022/03/27 09:33:56;;;;;;;31.55;15.57;;;11.90;92.80;;;;;;5012215;28;20056;-72
2022/03/27 09:36:24;;;;;;;29.45;15.15;;;11.90;92.80;;;;;;5013151;28;20109;-73
2022/03/27 09:39:12;;;;;;;30.38;16.00;;;11.80;92.70;;;;;;5013114;28;20044;-71
2022/03/27 09:41:44;;;;;;;34.22;14.70;;;11.80;92.70;;;;;;5013213;28;20500;-73
2022/03/27 09:44:15;;;;;;;28.25;14.80;;;11.80;92.70;;;;;;5013030;28;20079;-72
2022/03/27 09:46:58;;;;;;;30.33;15.27;;;11.90;92.60;;;;;;5012843;28;20380;-69
2022/03/27 09:49:37;;;;;;;33.15;15.23;;;12.00;92.50;;;;;;5012192;28;20049;-72
2022/03/27 09:52:12;;;;;;;28.77;14.88;;;11.70;92.20;;;;;;5028307;28;20025;-73
2022/03/27 09:54:55;;;;;;;28.70;14.68;;;11.90;92.50;;;;;;5012833;28;20061;-70
2022/03/27 09:57:31;;;;;;;27.27;14.02;;;11.90;92.00;;;;;;5010757;28;20034;-72
2022/03/27 10:00:11;;;;;;;28.73;14.35;;;12.10;92.10;;;;;;5012853;28;20341;-71
2022/03/27 10:02:38;;;;;;;27.80;13.00;;;12.40;91.70;;;;;;5012613;28;20040;-72
2022/03/27 10:05:06;;;;;;;28.08;13.68;;;12.60;91.40;;;;;;5012456;28;20056;-71
2022/03/27 10:07:38;;;;;;;24.27;12.32;;;12.90;91.00;;;;;;5012392;28;20029;-71
2022/03/27 10:10:06;;;;;;;26.20;13.23;;;13.70;90.60;;;;;;5013097;28;20097;-72
2022/03/27 10:12:34;;;;;;;25.38;12.38;;;14.30;88.30;;;;;;5011180;28;20026;-71
2022/03/27 10:15:04;;;;;;;;;;;14.30;86.70;;;;;;5012778;28;20467;-70
2022/03/27 10:17:33;;;;;;;23.23;12.23;;;14.90;86.30;;;;;;5007944;28;19913;-72
2022/03/27 10:20:11;;;;;;;20.88;11.02;;;15.70;83.10;;;;;;4992654;28;20034;-71
2022/03/27 10:22:41;;;;;;;19.88;10.98;;;17.00;81.20;;;;;;4992501;28;20129;-71
2022/03/27 10:25:09;;;;;;;17.17;10.55;;;17.90;78.80;;;;;;4993500;28;20113;-72
2022/03/27 10:27:37;;;;;;;17.30;10.68;;;18.30;74.90;;;;;;4992927;28;20056;-73
2022/03/27 10:30:04;;;;;;;17.48;10.98;;;18.50;74.00;;;;;;4992511;28;20030;-74
2022/03/27 10:32:30;;;;;;;17.73;10.73;;;19.70;74.80;;;;;;4991484;28;20156;-72
2022/03/27 10:35:21;;;;;;;16.48;10.63;;;20.60;68.10;;;;;;4992432;28;20042;-71
2022/03/27 10:37:53;;;;;;;14.93;9.90;;;21.30;67.50;;;;;;4992192;28;20080;-71
2022/03/27 10:40:24;;;;;;;17.83;9.80;;;22.30;62.50;;;;;;4992664;28;20033;-69
2022/03/27 10:43:00;;;;;;;16.98;10.30;;;21.80;62.00;;;;;;4992366;28;20244;-70
2022/03/27 10:45:26;;;;;;;15.43;9.50;;;22.00;60.40;;;;;;4990967;28;20121;-69
2022/03/27 10:48:13;;;;;;;16.15;11.10;;;23.40;60.90;;;;;;4992285;28;20114;-71
2022/03/27 10:50:55;;;;;;;16.23;11.90;;;24.70;55.90;;;;;;4992277;28;20081;-71
2022/03/27 10:53:22;;;;;;;15.95;10.43;;;25.20;53.40;;;;;;4991961;28;20038;-73
2022/03/27 10:55:51;;;;;;;15.02;9.43;;;25.90;52.30;;;;;;4991785;28;20026;-74
2022/03/27 10:58:34;;;;;;;14.27;9.88;;;26.00;51.20;;;;;;4992819;28;20161;-72
2022/03/27 11:01:20;;;;;;;17.80;10.80;;;26.10;49.70;;;;;;5011893;28;20054;-71
2022/03/27 11:03:49;;;;;;;16.63;11.10;;;25.30;50.20;;;;;;5006954;28;20038;-71
2022/03/27 11:06:20;;;;;;;14.13;10.23;;;25.40;49.60;;;;;;5011593;28;20033;-71
2022/03/27 11:08:46;;;;;;;19.60;12.90;;;25.60;49.00;;;;;;5011431;28;20038;-70
2022/03/27 11:11:37;;;;;;;18.48;10.60;;;25.80;48.80;;;;;;5010432;28;20033;-70
2022/03/27 11:14:08;;;;;;;16.25;11.13;;;25.80;48.20;;;;;;5011498;28;20049;-71
2022/03/27 11:16:54;;;;;;;14.77;9.45;;;25.70;48.00;;;;;;5011490;28;20064;-71
2022/03/27 11:19:40;;;;;;;16.20;10.27;;;25.30;47.00;;;;;;5011711;28;20113;-73
2022/03/27 11:22:06;;;;;;;14.02;10.52;;;24.80;47.40;;;;;;5011444;28;20088;-73
2022/03/27 11:24:31;;;;;;;17.02;11.30;;;24.80;47.10;;;;;;5010531;28;20372;-71
2022/03/27 11:26:57;;;;;;;14.60;10.88;;;24.00;47.40;;;;;;5006939;28;20046;-70
2022/03/27 11:29:24;;;;;;;15.40;10.25;;;24.30;47.00;;;;;;4991772;28;20061;-70
2022/03/27 11:32:08;;;;;;;16.05;10.15;;;25.60;47.70;;;;;;4991601;28;20536;-70
2022/03/27 11:34:38;;;;;;;15.98;10.95;;;25.60;44.90;;;;;;4991960;28;20077;-70
2022/03/27 11:37:14;;;;;;;15.80;11.38;;;25.70;45.80;;;;;;5007601;28;20014;-71
2022/03/27 11:39:40;;;;;;;17.33;11.02;;;25.20;45.70;;;;;;4990440;28;20027;-70
2022/03/27 11:42:23;;;;;;;16.52;11.07;;;24.80;46.30;;;;;;4990127;28;20491;-68
2022/03/27 11:45:08;;;;;;;15.35;9.88;;;23.40;47.00;;;;;;4991584;28;20114;-68
2022/03/27 11:47:58;;;;;;;16.83;11.02;;;22.30;49.10;;;;;;4991462;28;20045;-73
2022/03/27 11:50:32;;;;;;;15.55;10.63;;;21.50;49.60;;;;;;4990378;28;20110;-70
2022/03/27 11:52:59;;;;;;;17.08;10.38;;;21.30;50.30;;;;;;4990711;28;20464;-70
2022/03/27 11:55:33;;;;;;;17.20;10.97;;;21.00;50.70;;;;;;5007026;28;20081;-69
2022/03/27 11:58:00;;;;;;;18.05;9.77;;;20.60;51.50;;;;;;4991567;28;20497;-70
2022/03/27 12:00:37;;;;;;;15.98;9.48;;;19.80;51.70;;;;;;4991116;28;20077;-71
2022/03/27 12:03:11;;;;;;;14.35;8.45;;;19.50;52.90;;;;;;4991099;28;20041;-72
2022/03/27 12:05:39;;;;;;;14.85;9.30;;;19.00;52.90;;;;;;4991121;28;20040;-71
2022/03/27 12:08:06;;;;;;;16.55;9.50;;;19.50;52.50;;;;;;4991040;28;20031;-70
2022/03/27 12:10:42;;;;;;;21.00;10.07;;;19.50;52.60;;;;;;4990992;28;20439;-71
2022/03/27 12:13:09;;;;;;;16.50;9.80;;;19.30;53.00;;;;;;5006498;28;20030;-71
2022/03/27 12:15:40;;;;;;;14.63;9.93;;;18.90;53.40;;;;;;4991092;28;20511;-72
2022/03/27 12:18:05;;;;;;;16.27;9.65;;;18.70;53.60;;;;;;4989769;28;20054;-71
2022/03/27 12:20:48;;;;;;;14.77;9.30;;;18.30;54.10;;;;;;4991262;28;20513;-74
2022/03/27 12:23:22;;;;;;;15.75;9.70;;;18.10;54.30;;;;;;4994859;28;20089;-72
2022/03/27 12:31:57;;;;;;;14.80;9.05;;;17.80;55.30;;;;;;4994601;28;20061;-70
2022/03/27 12:34:24;;;;;;;11.57;7.93;;;17.80;55.60;;;;;;4995102;28;20031;-69
2022/03/27 12:37:14;;;;;;;15.43;9.55;;;17.60;55.50;;;;;;4994602;28;20260;-70
2022/03/27 12:39:58;;;;;;;13.98;7.95;;;17.40;56.50;;;;;;4993281;28;20086;-69
2022/03/27 12:42:39;;;;;;;12.95;7.70;;;17.70;58.20;;;;;;4994480;28;20035;-71
2022/03/27 12:45:10;;;;;;;16.15;8.85;;;17.90;54.90;;;;;;4994247;28;20037;-72
2022/03/27 12:47:47;;;;;;;13.23;8.43;;;17.80;55.00;;;;;;4994254;28;20346;-70